Time;durP1;ratioP1;P1;durP2;ratioP2;P2;SDS_P1;SDS_P2;PMS_P1;PMS_P2;Temp;Humidity;BMP_temperature;BMP_pressure;BME280_temperature;BME280_humidity;BME280_pressure;Samples;Min_cycle;Max_cycle;Signal;HPM_P1;HPM_P2
2022/03/26 00:02:07;;;;;;;114.18;77.40;;;;;;;;;;5052322;28;20056;-66
2022/03/26 00:05:12;;;;;;;119.20;75.65;;;;;;;;;;5052800;28;20044;-66
2022/03/26 00:08:16;;;;;;;116.85;75.13;;;;;;;;;;5052368;28;20044;-66
2022/03/26 00:11:20;;;;;;;114.80;74.55;;;;;;;;;;5052206;28;20413;-66
2022/03/26 00:14:24;;;;;;;115.85;76.95;;;;;;;;;;5052131;28;20040;-66
2022/03/26 00:17:29;;;;;;;120.38;77.78;;;;;;;;;;5052180;28;20480;-66
2022/03/26 00:20:33;;;;;;;118.38;77.10;;;;;;;;;;5051756;28;20436;-66
2022/03/26 00:23:37;;;;;;;115.75;77.80;;;;;;;;;;5052189;28;20040;-66
2022/03/26 00:26:42;;;;;;;129.07;77.05;;;;;;;;;;5051726;28;20044;-66
2022/03/26 00:29:46;;;;;;;118.88;78.38;;;;;;;;;;5051169;28;20496;-66
2022/03/26 00:32:51;;;;;;;118.60;76.43;;;;;;;;;;5051553;28;20516;-66
2022/03/26 00:35:55;;;;;;;117.68;77.57;;;;;;;;;;5051547;28;20040;-66
2022/03/26 00:38:59;;;;;;;123.43;79.43;;;;;;;;;;5051436;28;20048;-65
2022/03/26 00:42:03;;;;;;;125.07;76.88;;;;;;;;;;5051618;28;20071;-66
2022/03/26 00:45:08;;;;;;;118.55;79.10;;;;;;;;;;5051516;28;20171;-66
2022/03/26 00:48:12;;;;;;;119.60;74.38;;;;;;;;;;5050722;28;20401;-66
2022/03/26 00:51:17;;;;;;;120.22;77.13;;;;;;;;;;5051442;28;20055;-66
2022/03/26 00:54:21;;;;;;;118.68;76.65;;;;;;;;;;5051386;28;20048;-66
2022/03/26 00:57:25;;;;;;;112.13;73.63;;;;;;;;;;5051150;28;20401;-66
2022/03/26 01:00:30;;;;;;;115.63;75.90;;;;;;;;;;5051081;28;20052;-66
2022/03/26 01:03:34;;;;;;;109.82;74.95;;;;;;;;;;5051404;28;20052;-66
2022/03/26 01:06:39;;;;;;;109.43;72.07;;;;;;;;;;5050995;28;20396;-66
2022/03/26 01:09:43;;;;;;;113.07;72.82;;;;;;;;;;5050913;28;20104;-66
2022/03/26 01:12:47;;;;;;;106.18;73.68;;;;;;;;;;5051305;28;20055;-66
2022/03/26 01:15:52;;;;;;;110.95;73.03;;;;;;;;;;5050822;28;20044;-65
2022/03/26 01:18:57;;;;;;;112.35;72.40;;;;;;;;;;5050927;28;20044;-66
2022/03/26 01:22:01;;;;;;;111.93;72.57;;;;;;;;;;5053105;28;20519;-66
2022/03/26 01:25:06;;;;;;;112.35;70.93;;;;;;;;;;5051079;28;20056;-66
2022/03/26 01:28:10;;;;;;;140.20;72.97;;;;;;;;;;5050957;28;20051;-66
2022/03/26 01:31:19;;;;;;;104.95;72.38;;;;;;;;;;5050871;28;20055;-66
2022/03/26 01:34:25;;;;;;;111.72;71.55;;;;;;;;;;5050876;28;20068;-66
2022/03/26 01:37:29;;;;;;;104.97;68.75;;;;;;;;;;5050912;28;20043;-66
2022/03/26 01:40:34;;;;;;;113.22;70.55;;;;;;;;;;5050059;28;20072;-66
2022/03/26 01:43:40;;;;;;;106.72;70.00;;;;;;;;;;5050521;28;20044;-66
2022/03/26 01:46:54;;;;;;;105.43;69.88;;;;;;;;;;5050873;28;20499;-66
2022/03/26 01:49:58;;;;;;;101.50;69.28;;;;;;;;;;5050668;28;20495;-66
2022/03/26 01:53:03;;;;;;;102.38;69.53;;;;;;;;;;5050434;28;20040;-66
2022/03/26 01:56:08;;;;;;;108.88;70.63;;;;;;;;;;5050541;28;20048;-66
2022/03/26 01:59:12;;;;;;;110.88;72.53;;;;;;;;;;5051928;28;20040;-66
2022/03/26 02:02:17;;;;;;;115.50;70.20;;;;;;;;;;5053603;28;20071;-66
2022/03/26 02:05:22;;;;;;;104.68;68.93;;;;;;;;;;5054484;28;20052;-66
2022/03/26 02:08:26;;;;;;;114.45;70.88;;;;;;;;;;5054403;28;20051;-66
2022/03/26 02:11:34;;;;;;;107.32;68.72;;;;;;;;;;5054438;28;20040;-66
2022/03/26 02:14:38;;;;;;;96.50;67.82;;;;;;;;;;5054007;28;20043;-66
2022/03/26 02:17:43;;;;;;;94.32;62.67;;;;;;;;;;5054423;28;20044;-66
2022/03/26 02:20:47;;;;;;;80.65;55.72;;;;;;;;;;5054070;28;20468;-66
2022/03/26 02:23:52;;;;;;;79.63;54.53;;;;;;;;;;5054470;28;20044;-66
2022/03/26 02:26:57;;;;;;;71.82;51.30;;;;;;;;;;5054312;28;20051;-66
2022/03/26 02:30:02;;;;;;;86.30;59.15;;;;;;;;;;5054193;28;20394;-66
2022/03/26 02:33:06;;;;;;;92.90;58.88;;;;;;;;;;5053781;28;20044;-66
2022/03/26 02:36:10;;;;;;;84.38;57.55;;;;;;;;;;5053857;28;20040;-66
2022/03/26 02:39:15;;;;;;;87.57;56.75;;;;;;;;;;5054110;28;20048;-66
2022/03/26 02:42:19;;;;;;;85.00;58.33;;;;;;;;;;5053847;28;20060;-66
2022/03/26 02:45:24;;;;;;;81.05;56.45;;;;;;;;;;5053655;28;20047;-66
2022/03/26 02:48:29;;;;;;;82.82;57.80;;;;;;;;;;5053776;28;20044;-66
2022/03/26 02:51:33;;;;;;;91.57;59.40;;;;;;;;;;5053918;28;20066;-66
2022/03/26 02:54:38;;;;;;;95.68;60.28;;;;;;;;;;5053639;28;20520;-66
2022/03/26 02:57:42;;;;;;;83.40;58.20;;;;;;;;;;5053506;28;20048;-66
2022/03/26 03:00:47;;;;;;;91.00;56.67;;;;;;;;;;5053377;28;20052;-66
2022/03/26 03:03:51;;;;;;;81.50;57.50;;;;;;;;;;5053565;28;20044;-66
2022/03/26 03:06:55;;;;;;;92.07;56.88;;;;;;;;;;5053420;28;20047;-66
2022/03/26 03:09:59;;;;;;;83.50;56.63;;;;;;;;;;5053037;28;20048;-66
2022/03/26 03:13:03;;;;;;;79.15;54.63;;;;;;;;;;5053487;28;20052;-66
2022/03/26 03:16:08;;;;;;;81.85;52.78;;;;;;;;;;5053095;28;20052;-66
2022/03/26 03:19:12;;;;;;;80.88;55.47;;;;;;;;;;5053036;28;20043;-66
2022/03/26 03:22:16;;;;;;;84.28;53.38;;;;;;;;;;5053040;28;20052;-66
2022/03/26 03:25:21;;;;;;;73.93;52.42;;;;;;;;;;5052997;28;20420;-66
2022/03/26 03:28:26;;;;;;;92.18;54.47;;;;;;;;;;5052711;28;20048;-66
2022/03/26 03:31:30;;;;;;;76.28;53.70;;;;;;;;;;5052825;28;20039;-66
2022/03/26 03:34:34;;;;;;;90.53;53.25;;;;;;;;;;5052917;28;20056;-66
2022/03/26 03:37:39;;;;;;;82.30;53.70;;;;;;;;;;5053011;28;20524;-66
2022/03/26 03:40:43;;;;;;;74.63;51.30;;;;;;;;;;5051982;28;20044;-66
2022/03/26 03:43:47;;;;;;;68.35;48.05;;;;;;;;;;5052955;28;20055;-66
2022/03/26 03:46:52;;;;;;;76.93;50.40;;;;;;;;;;5052813;28;20048;-66
2022/03/26 03:49:56;;;;;;;67.85;46.70;;;;;;;;;;5052551;28;20052;-66
2022/03/26 03:53:00;;;;;;;70.63;48.45;;;;;;;;;;5052512;28;20044;-65
2022/03/26 03:56:04;;;;;;;69.63;46.70;;;;;;;;;;5052764;28;20044;-65
2022/03/26 03:59:09;;;;;;;72.90;45.90;;;;;;;;;;5052500;28;20396;-66
2022/03/26 04:02:13;;;;;;;63.58;44.50;;;;;;;;;;5052245;28;20047;-66
2022/03/26 04:05:17;;;;;;;65.15;44.30;;;;;;;;;;5052289;28;20040;-66
2022/03/26 04:08:22;;;;;;;65.47;41.55;;;;;;;;;;5051984;28;20044;-65
2022/03/26 04:11:26;;;;;;;59.40;40.85;;;;;;;;;;5052291;28;20043;-66
2022/03/26 04:14:31;;;;;;;55.90;38.50;;;;;;;;;;5052332;28;20396;-65
2022/03/26 04:17:36;;;;;;;61.22;39.67;;;;;;;;;;5051629;28;20050;-65
2022/03/26 04:20:41;;;;;;;59.92;38.47;;;;;;;;;;5052017;28;20250;-65
2022/03/26 04:23:45;;;;;;;54.60;37.22;;;;;;;;;;5052041;28;20523;-65
2022/03/26 04:26:50;;;;;;;53.08;36.22;;;;;;;;;;5051812;28;20051;-66
2022/03/26 04:29:55;;;;;;;50.08;34.65;;;;;;;;;;5051766;28;20040;-66
2022/03/26 04:32:59;;;;;;;55.45;35.05;;;;;;;;;;5051693;28;20036;-66
2022/03/26 04:36:03;;;;;;;51.65;33.42;;;;;;;;;;5051599;28;20055;-66
2022/03/26 04:39:07;;;;;;;50.08;32.65;;;;;;;;;;5051780;28;20479;-66
2022/03/26 04:42:12;;;;;;;53.28;33.63;;;;;;;;;;5051508;28;20048;-66
2022/03/26 04:45:16;;;;;;;47.88;32.00;;;;;;;;;;5051792;28;20040;-66
2022/03/26 04:48:21;;;;;;;48.47;31.60;;;;;;;;;;5051533;28;20048;-66
2022/03/26 04:51:25;;;;;;;53.65;33.53;;;;;;;;;;5051536;28;20099;-66
2022/03/26 04:54:30;;;;;;;47.70;33.22;;;;;;;;;;5051516;28;20072;-66
2022/03/26 04:57:37;;;;;;;47.55;32.38;;;;;;;;;;5051363;28;20044;-67
2022/03/26 05:00:42;;;;;;;53.45;34.03;;;;;;;;;;5051418;28;20396;-66
2022/03/26 05:03:46;;;;;;;46.05;32.33;;;;;;;;;;5051342;28;20056;-66
2022/03/26 05:06:50;;;;;;;53.25;35.28;;;;;;;;;;5051708;28;20052;-66
2022/03/26 05:09:55;;;;;;;62.80;39.08;;;;;;;;;;5051287;28;20400;-66
2022/03/26 05:12:59;;;;;;;60.75;40.00;;;;;;;;;;5051101;28;20047;-66
2022/03/26 05:16:04;;;;;;;66.15;42.17;;;;;;;;;;5050051;28;20052;-66
2022/03/26 05:19:08;;;;;;;68.63;42.05;;;;;;;;;;5051191;28;20040;-65
2022/03/26 05:22:13;;;;;;;79.05;42.05;;;;;;;;;;5050819;28;20076;-66
2022/03/26 05:25:18;;;;;;;173.38;48.45;;;;;;;;;;5050321;28;20040;-67
2022/03/26 05:28:22;;;;;;;60.95;39.75;;;;;;;;;;5050645;28;20048;-66
2022/03/26 05:31:28;;;;;;;62.35;39.85;;;;;;;;;;5050934;28;20499;-66
2022/03/26 05:34:33;;;;;;;64.32;42.90;;;;;;;;;;5050425;28;20488;-67
2022/03/26 05:37:37;;;;;;;63.30;42.65;;;;;;;;;;5050728;28;20298;-67
2022/03/26 05:40:42;;;;;;;68.65;45.08;;;;;;;;;;5050735;28;20052;-67
2022/03/26 05:43:48;;;;;;;60.47;38.95;;;;;;;;;;5050711;28;20040;-66
2022/03/26 05:46:52;;;;;;;72.82;38.50;;;;;;;;;;5050669;28;20040;-66
2022/03/26 05:49:57;;;;;;;70.63;42.53;;;;;;;;;;5050654;28;20044;-67
2022/03/26 05:53:01;;;;;;;68.80;43.92;;;;;;;;;;5050890;28;20044;-66
2022/03/26 05:56:05;;;;;;;58.35;42.45;;;;;;;;;;5050826;28;20052;-67
2022/03/26 05:59:10;;;;;;;54.72;40.83;;;;;;;;;;5050278;28;20052;-65
2022/03/26 06:02:15;;;;;;;54.35;39.70;;;;;;;;;;5050384;28;20060;-66
2022/03/26 06:05:19;;;;;;;53.03;40.70;;;;;;;;;;5050677;28;20389;-66
2022/03/26 06:08:23;;;;;;;58.63;42.80;;;;;;;;;;5049618;28;20488;-67
2022/03/26 06:11:27;;;;;;;69.50;45.00;;;;;;;;;;5050473;28;20404;-67
2022/03/26 06:14:31;;;;;;;61.10;41.28;;;;;;;;;;5050599;28;20503;-67
2022/03/26 06:17:36;;;;;;;61.83;42.03;;;;;;;;;;5049745;28;20075;-67
2022/03/26 06:20:42;;;;;;;65.75;44.35;;;;;;;;;;5050225;28;20116;-65
2022/03/26 06:23:46;;;;;;;66.97;44.90;;;;;;;;;;5050573;28;20056;-67
2022/03/26 06:26:50;;;;;;;62.00;45.92;;;;;;;;;;5050186;28;20044;-67
2022/03/26 06:29:55;;;;;;;71.22;47.40;;;;;;;;;;5050391;28;20055;-67
2022/03/26 06:32:59;;;;;;;69.85;51.05;;;;;;;;;;5050195;28;20040;-66
2022/03/26 06:36:04;;;;;;;68.10;51.03;;;;;;;;;;5050201;28;20044;-66
2022/03/26 06:39:08;;;;;;;86.05;53.08;;;;;;;;;;5050074;28;20044;-66
2022/03/26 06:42:12;;;;;;;76.10;55.55;;;;;;;;;;5049899;28;20052;-66
2022/03/26 06:45:16;;;;;;;84.47;58.65;;;;;;;;;;5051455;28;20040;-66
2022/03/26 06:48:20;;;;;;;80.95;56.33;;;;;;;;;;5053440;28;20044;-67
2022/03/26 06:51:25;;;;;;;83.13;58.58;;;;;;;;;;5053474;28;20044;-67
2022/03/26 06:54:29;;;;;;;96.05;57.92;;;;;;;;;;5053746;28;20400;-66
2022/03/26 06:57:33;;;;;;;81.43;57.97;;;;;;;;;;5053716;28;20044;-67
2022/03/26 07:00:38;;;;;;;88.03;58.65;;;;;;;;;;5052776;28;20616;-67
2022/03/26 07:03:42;;;;;;;85.63;59.17;;;;;;;;;;5053671;28;20064;-65
2022/03/26 07:06:46;;;;;;;83.50;58.08;;;;;;;;;;5053588;28;20044;-67
2022/03/26 07:09:50;;;;;;;82.18;58.05;;;;;;;;;;5053240;28;20048;-67
2022/03/26 07:12:55;;;;;;;83.85;62.35;;;;;;;;;;5053431;28;20500;-67
2022/03/26 07:15:59;;;;;;;88.88;66.43;;;;;;;;;;5053176;28;20051;-65
2022/03/26 07:19:04;;;;;;;93.38;70.72;;;;;;;;;;5052870;28;20392;-71
2022/03/26 07:22:08;;;;;;;89.03;69.47;;;;;;;;;;5053111;28;20123;-71
2022/03/26 07:25:12;;;;;;;96.18;70.30;;;;;;;;;;5052992;28;20411;-69
2022/03/26 07:28:17;;;;;;;93.80;65.97;;;;;;;;;;5052908;28;20059;-67
2022/03/26 07:31:21;;;;;;;99.75;66.50;;;;;;;;;;5052852;28;20048;-67
2022/03/26 07:34:26;;;;;;;82.18;60.50;;;;;;;;;;5053065;28;20044;-67
2022/03/26 07:37:31;;;;;;;86.55;61.53;;;;;;;;;;5052625;28;20055;-69
2022/03/26 07:40:35;;;;;;;82.85;61.72;;;;;;;;;;5052743;28;20504;-69
2022/03/26 07:43:39;;;;;;;82.97;61.25;;;;;;;;;;5052427;28;20099;-69
2022/03/26 07:46:43;;;;;;;81.43;58.60;;;;;;;;;;5052727;28;20060;-69
2022/03/26 07:49:48;;;;;;;83.43;59.85;;;;;;;;;;5052633;28;20495;-69
2022/03/26 07:52:53;;;;;;;73.55;57.55;;;;;;;;;;5052285;28;20040;-70
2022/03/26 07:55:57;;;;;;;79.38;59.75;;;;;;;;;;5052458;28;20403;-69
2022/03/26 07:59:01;;;;;;;77.60;57.67;;;;;;;;;;5052410;28;20051;-71
2022/03/26 08:02:06;;;;;;;75.80;54.10;;;;;;;;;;5051989;28;20051;-69
2022/03/26 08:05:11;;;;;;;84.15;54.20;;;;;;;;;;5051658;28;20099;-74
2022/03/26 08:08:15;;;;;;;78.15;55.20;;;;;;;;;;5052036;28;20246;-74
2022/03/26 08:11:19;;;;;;;78.50;51.70;;;;;;;;;;5051378;28;20393;-68
2022/03/26 08:14:23;;;;;;;75.47;48.45;;;;;;;;;;5052251;28;20051;-67
2022/03/26 08:17:31;;;;;;;66.93;47.17;;;;;;;;;;5051832;28;20051;-69
2022/03/26 08:20:35;;;;;;;76.72;50.22;;;;;;;;;;5052224;28;20044;-71
2022/03/26 08:23:41;;;;;;;66.40;49.63;;;;;;;;;;5051736;28;20670;-71
2022/03/26 08:26:45;;;;;;;63.30;48.80;;;;;;;;;;5051057;28;20492;-70
2022/03/26 08:29:50;;;;;;;56.63;42.03;;;;;;;;;;5051475;28;20048;-71
2022/03/26 08:32:54;;;;;;;58.50;43.67;;;;;;;;;;5051721;28;20383;-70
2022/03/26 08:35:58;;;;;;;62.03;47.42;;;;;;;;;;5051764;28;20048;-68
2022/03/26 08:39:03;;;;;;;80.85;50.35;;;;;;;;;;5051535;28;20059;-70
2022/03/26 08:42:07;;;;;;;60.65;44.80;;;;;;;;;;5051367;28;20071;-71
2022/03/26 08:45:12;;;;;;;55.60;42.67;;;;;;;;;;5051660;28;20499;-69
2022/03/26 08:48:16;;;;;;;50.03;38.10;;;;;;;;;;5051356;28;20065;-69
2022/03/26 08:51:20;;;;;;;50.10;38.55;;;;;;;;;;5051271;28;20119;-73
2022/03/26 08:54:24;;;;;;;56.90;40.67;;;;;;;;;;5050978;28;20052;-68
2022/03/26 08:57:29;;;;;;;72.05;46.90;;;;;;;;;;5050737;28;20115;-67
2022/03/26 09:00:34;;;;;;;49.35;37.35;;;;;;;;;;5051294;28;20514;-67
2022/03/26 09:03:40;;;;;;;44.72;31.88;;;;;;;;;;5051360;28;20048;-68
2022/03/26 09:06:44;;;;;;;45.60;35.28;;;;;;;;;;5050347;28;20044;-69
2022/03/26 09:09:48;;;;;;;55.22;37.35;;;;;;;;;;5050291;28;20397;-68
2022/03/26 09:12:53;;;;;;;35.70;30.05;;;;;;;;;;5050934;28;20036;-67
2022/03/26 09:15:58;;;;;;;46.40;32.47;;;;;;;;;;5050794;28;20064;-69
2022/03/26 09:19:02;;;;;;;41.20;29.20;;;;;;;;;;5050129;28;20048;-69
2022/03/26 09:22:07;;;;;;;41.08;30.15;;;;;;;;;;5050344;28;20052;-71
2022/03/26 09:25:12;;;;;;;38.95;28.60;;;;;;;;;;5049829;28;20060;-71
2022/03/26 09:28:16;;;;;;;35.58;25.70;;;;;;;;;;5050683;28;20044;-71
2022/03/26 09:31:21;;;;;;;30.27;22.98;;;;;;;;;;5050965;28;20052;-73
2022/03/26 09:34:25;;;;;;;26.75;21.75;;;;;;;;;;5050646;28;20052;-72
2022/03/26 09:37:30;;;;;;;44.92;26.15;;;;;;;;;;5050338;28;20404;-72
2022/03/26 09:40:35;;;;;;;38.22;27.25;;;;;;;;;;5050505;28;20044;-71
2022/03/26 09:43:39;;;;;;;29.63;21.77;;;;;;;;;;5050580;28;20060;-72
2022/03/26 09:46:44;;;;;;;32.90;23.50;;;;;;;;;;5050626;28;20055;-71
2022/03/26 09:49:48;;;;;;;25.70;18.77;;;;;;;;;;5050603;28;20044;-72
2022/03/26 09:52:52;;;;;;;27.80;19.75;;;;;;;;;;5049637;28;20393;-70
2022/03/26 09:55:57;;;;;;;28.95;19.05;;;;;;;;;;5050573;28;20052;-70
2022/03/26 09:59:01;;;;;;;24.95;19.40;;;;;;;;;;5050455;28;20040;-70
2022/03/26 10:02:06;;;;;;;41.90;21.92;;;;;;;;;;5050579;28;20468;-70
2022/03/26 10:05:12;;;;;;;26.40;18.05;;;;;;;;;;5050331;28;20052;-67
2022/03/26 10:08:21;;;;;;;31.85;19.00;;;;;;;;;;5050176;28;20052;-70
2022/03/26 10:11:25;;;;;;;29.80;19.98;;;;;;;;;;5049804;28;20043;-73
2022/03/26 10:14:39;;;;;;;33.40;20.63;;;;;;;;;;5050365;28;20052;-68
2022/03/26 10:17:43;;;;;;;29.40;19.67;;;;;;;;;;5050283;28;20401;-69
2022/03/26 10:20:57;;;;;;;22.25;16.98;;;;;;;;;;5051700;28;20052;-68
2022/03/26 10:24:02;;;;;;;27.50;18.25;;;;;;;;;;5054221;28;20056;-70
2022/03/26 10:27:12;;;;;;;38.22;21.95;;;;;;;;;;5053858;28;20044;-75
2022/03/26 10:32:38;;;;;;;29.93;20.63;;;;;;;;;;5053988;28;20558;-69
2022/03/26 10:33:42;;;;;;;34.75;21.98;;;;;;;;;;5053463;28;20270;-69
2022/03/26 10:36:53;;;;;;;39.25;24.88;;;;;;;;;;5053476;28;20048;-70
2022/03/26 10:39:57;;;;;;;31.02;21.98;;;;;;;;;;5052555;28;20164;-70
2022/03/26 10:43:01;;;;;;;37.47;24.80;;;;;;;;;;5052577;28;20056;-72
2022/03/26 10:46:05;;;;;;;35.20;25.88;;;;;;;;;;5053509;28;20048;-70
2022/03/26 10:49:11;;;;;;;36.40;24.90;;;;;;;;;;5052977;28;20052;-70
2022/03/26 10:52:17;;;;;;;41.05;26.65;;;;;;;;;;5053676;28;20052;-67
2022/03/26 10:55:21;;;;;;;33.03;23.25;;;;;;;;;;5052141;28;20052;-68
2022/03/26 10:58:26;;;;;;;37.42;22.48;;;;;;;;;;5053195;28;20113;-68
2022/03/26 11:01:31;;;;;;;32.28;20.85;;;;;;;;;;5053320;28;20412;-68
2022/03/26 11:04:35;;;;;;;30.38;20.23;;;;;;;;;;5053405;28;20086;-68
2022/03/26 11:07:43;;;;;;;26.92;19.73;;;;;;;;;;5053021;28;20044;-68
2022/03/26 11:10:50;;;;;;;28.75;18.38;;;;;;;;;;5053292;28;20389;-67
2022/03/26 11:13:56;;;;;;;27.00;16.67;;;;;;;;;;5052903;28;20040;-68
2022/03/26 11:17:25;;;;;;;19.42;14.25;;;;;;;;;;5052792;28;20071;-68
2022/03/26 11:20:44;;;;;;;21.90;14.95;;;;;;;;;;5053181;28;20056;-68
2022/03/26 11:24:01;;;;;;;24.40;13.93;;;;;;;;;;5053163;28;20060;-68
2022/03/26 11:27:05;;;;;;;20.52;12.80;;;;;;;;;;5052818;28;20044;-67
2022/03/26 11:30:09;;;;;;;27.45;14.05;;;;;;;;;;5052940;28;20521;-68
2022/03/26 11:33:15;;;;;;;25.42;14.50;;;;;;;;;;5051071;28;20048;-68
2022/03/26 11:36:19;;;;;;;20.67;13.13;;;;;;;;;;5051879;28;20120;-67
2022/03/26 11:39:23;;;;;;;36.28;15.75;;;;;;;;;;5052517;28;20044;-67
2022/03/26 11:42:35;;;;;;;20.13;13.38;;;;;;;;;;5052579;28;20063;-68
2022/03/26 11:52:44;;;;;;;17.25;11.70;;;;;;;;;;5052639;28;20512;-68
2022/03/26 11:55:49;;;;;;;22.55;13.38;;;;;;;;;;5052210;28;20044;-67
2022/03/26 11:59:12;;;;;;;18.58;13.65;;;;;;;;;;5052413;28;20500;-67
2022/03/26 12:02:24;;;;;;;19.80;12.63;;;;;;;;;;5051988;28;20468;-68
2022/03/26 12:08:55;;;;;;;19.58;13.73;;;;;;;;;;5051093;28;20047;-68
2022/03/26 12:12:05;;;;;;;21.27;14.27;;;;;;;;;;5051362;28;20044;-68
2022/03/26 12:15:13;;;;;;;21.75;13.18;;;;;;;;;;5052086;28;20409;-68
2022/03/26 12:18:17;;;;;;;22.50;13.15;;;;;;;;;;5052241;28;20064;-68
2022/03/26 12:21:23;;;;;;;22.80;13.70;;;;;;;;;;5051803;28;20066;-67
2022/03/26 12:24:30;;;;;;;21.17;13.40;;;;;;;;;;5051906;28;20060;-68
2022/03/26 12:27:38;;;;;;;23.92;16.60;;;;;;;;;;5052243;28;20372;-68
2022/03/26 12:30:50;;;;;;;23.35;16.20;;;;;;;;;;5052008;28;20207;-68
2022/03/26 12:33:54;;;;;;;26.63;17.02;;;;;;;;;;5052031;28;20393;-68
2022/03/26 12:37:03;;;;;;;22.60;16.90;;;;;;;;;;5051839;28;20424;-68
2022/03/26 12:40:08;;;;;;;24.50;15.27;;;;;;;;;;5051797;28;20039;-67
2022/03/26 12:43:12;;;;;;;21.65;14.00;;;;;;;;;;5050525;28;20055;-68
2022/03/26 12:46:17;;;;;;;28.42;15.85;;;;;;;;;;5051679;28;20048;-68
2022/03/26 12:49:21;;;;;;;23.30;16.17;;;;;;;;;;5051660;28;20063;-67
2022/03/26 12:52:26;;;;;;;19.48;14.32;;;;;;;;;;5051300;28;20404;-67
2022/03/26 12:55:30;;;;;;;26.83;13.40;;;;;;;;;;5050789;28;20511;-68
2022/03/26 13:02:00;;;;;;;20.70;12.93;;;;;;;;;;5051422;28;20048;-68
2022/03/26 13:05:07;;;;;;;19.70;12.45;;;;;;;;;;5051145;28;20056;-67
2022/03/26 13:08:12;;;;;;;18.42;12.80;;;;;;;;;;5050479;28;20044;-68
2022/03/26 13:11:17;;;;;;;20.63;13.40;;;;;;;;;;5051075;28;20076;-68
2022/03/26 13:14:21;;;;;;;21.67;13.20;;;;;;;;;;5051129;28;20044;-67
2022/03/26 13:17:25;;;;;;;17.58;12.50;;;;;;;;;;5051119;28;20056;-67
2022/03/26 13:20:32;;;;;;;20.48;13.57;;;;;;;;;;5050982;28;20496;-67
2022/03/26 13:23:37;;;;;;;21.30;12.63;;;;;;;;;;5050804;28;20071;-67
2022/03/26 13:26:52;;;;;;;19.73;12.27;;;;;;;;;;5051242;28;20059;-72
2022/03/26 13:30:08;;;;;;;15.85;11.63;;;;;;;;;;5049952;28;20060;-71
2022/03/26 13:33:20;;;;;;;21.05;12.80;;;;;;;;;;5050229;28;20124;-70
2022/03/26 13:36:29;;;;;;;24.60;13.30;;;;;;;;;;5050951;28;20040;-69
2022/03/26 13:39:33;;;;;;;15.63;11.80;;;;;;;;;;5051040;28;20060;-69
2022/03/26 13:42:40;;;;;;;21.17;12.18;;;;;;;;;;5050874;28;20051;-69
2022/03/26 13:45:45;;;;;;;14.80;11.68;;;;;;;;;;5051024;28;20044;-68
2022/03/26 13:48:51;;;;;;;24.48;13.10;;;;;;;;;;5049993;28;20056;-67
2022/03/26 13:51:56;;;;;;;20.58;14.02;;;;;;;;;;5049897;28;20048;-68
2022/03/26 13:55:00;;;;;;;21.40;14.30;;;;;;;;;;5050853;28;20397;-68
2022/03/26 13:58:11;;;;;;;21.02;13.02;;;;;;;;;;5054682;28;20048;-68
2022/03/26 14:01:17;;;;;;;19.65;13.77;;;;;;;;;;5054367;28;20103;-68
2022/03/26 14:04:22;;;;;;;21.90;15.38;;;;;;;;;;5053640;28;20047;-68
2022/03/26 14:07:26;;;;;;;19.50;13.65;;;;;;;;;;5054297;28;20060;-68
2022/03/26 14:10:32;;;;;;;21.83;13.52;;;;;;;;;;5054597;28;20226;-68
2022/03/26 14:13:36;;;;;;;18.48;13.90;;;;;;;;;;5054343;28;20048;-68
2022/03/26 14:16:40;;;;;;;15.88;12.60;;;;;;;;;;5054197;28;20055;-68
2022/03/26 14:19:45;;;;;;;17.63;11.38;;;;;;;;;;5054258;28;20048;-68
2022/03/26 14:22:49;;;;;;;21.77;13.60;;;;;;;;;;5054356;28;20060;-67
2022/03/26 14:25:53;;;;;;;21.08;13.00;;;;;;;;;;5054523;28;20056;-68
2022/03/26 14:28:57;;;;;;;19.38;13.02;;;;;;;;;;5054013;28;20048;-68
2022/03/26 14:32:02;;;;;;;19.48;11.65;;;;;;;;;;5053927;28;20063;-68
2022/03/26 14:35:06;;;;;;;18.20;12.95;;;;;;;;;;5053791;28;20040;-68
2022/03/26 14:38:11;;;;;;;16.67;12.15;;;;;;;;;;5053757;28;20040;-67
2022/03/26 14:41:15;;;;;;;15.00;11.63;;;;;;;;;;5054127;28;20487;-68
2022/03/26 14:44:19;;;;;;;23.98;14.73;;;;;;;;;;5053640;28;20052;-68
2022/03/26 14:47:23;;;;;;;18.17;12.52;;;;;;;;;;5053548;28;20036;-68
2022/03/26 14:50:28;;;;;;;17.02;12.73;;;;;;;;;;5053613;28;20408;-68
2022/03/26 14:53:32;;;;;;;20.95;14.52;;;;;;;;;;5052464;28;20044;-67
2022/03/26 14:56:37;;;;;;;20.33;12.70;;;;;;;;;;5053424;28;20044;-68
2022/03/26 14:59:41;;;;;;;19.40;12.30;;;;;;;;;;5053131;28;20036;-69
2022/03/26 15:02:45;;;;;;;31.50;19.48;;;;;;;;;;5053019;28;20048;-68
2022/03/26 15:05:49;;;;;;;22.73;14.25;;;;;;;;;;5052517;28;20036;-67
2022/03/26 15:08:54;;;;;;;20.75;12.48;;;;;;;;;;5053515;28;20047;-68
2022/03/26 15:11:58;;;;;;;21.30;12.20;;;;;;;;;;5053180;28;20051;-68
2022/03/26 15:15:03;;;;;;;18.42;11.13;;;;;;;;;;5053101;28;20047;-68
2022/03/26 15:18:07;;;;;;;21.02;11.90;;;;;;;;;;5052925;28;20060;-67
2022/03/26 15:21:11;;;;;;;21.83;11.40;;;;;;;;;;5052926;28;20107;-68
2022/03/26 15:24:16;;;;;;;20.50;12.63;;;;;;;;;;5053202;28;20040;-68
2022/03/26 15:27:20;;;;;;;16.83;10.88;;;;;;;;;;5052887;28;20508;-67
2022/03/26 15:30:25;;;;;;;23.25;12.40;;;;;;;;;;5053276;28;20052;-67
2022/03/26 15:33:29;;;;;;;21.77;13.15;;;;;;;;;;5052991;28;20044;-67
2022/03/26 15:36:34;;;;;;;18.92;13.63;;;;;;;;;;5052707;28;20044;-67
2022/03/26 15:39:38;;;;;;;22.10;14.52;;;;;;;;;;5052431;28;20052;-68
2022/03/26 15:42:42;;;;;;;18.27;13.02;;;;;;;;;;5052382;28;20072;-68
2022/03/26 15:45:47;;;;;;;21.00;12.98;;;;;;;;;;5052384;28;20488;-68
2022/03/26 15:48:51;;;;;;;28.25;14.93;;;;;;;;;;5052373;28;20056;-68
2022/03/26 15:51:55;;;;;;;22.30;12.85;;;;;;;;;;5052337;28;20044;-67
2022/03/26 15:54:59;;;;;;;21.77;13.80;;;;;;;;;;5051877;28;20048;-68
2022/03/26 15:58:05;;;;;;;16.80;11.30;;;;;;;;;;5052146;28;20519;-67
2022/03/26 16:01:10;;;;;;;20.38;13.18;;;;;;;;;;5052361;28;20048;-68
2022/03/26 16:04:14;;;;;;;25.35;12.93;;;;;;;;;;5052049;28;20072;-68
2022/03/26 16:07:19;;;;;;;23.17;12.85;;;;;;;;;;5052036;28;20043;-68
2022/03/26 16:10:23;;;;;;;23.95;13.50;;;;;;;;;;5051653;28;20056;-67
2022/03/26 16:13:27;;;;;;;22.95;15.05;;;;;;;;;;5051986;28;20052;-67
2022/03/26 16:16:34;;;;;;;29.58;17.85;;;;;;;;;;5051582;28;20055;-67
2022/03/26 16:19:39;;;;;;;28.20;18.33;;;;;;;;;;5051695;28;20592;-67
2022/03/26 16:22:43;;;;;;;36.03;20.48;;;;;;;;;;5051633;28;20047;-67
2022/03/26 16:25:48;;;;;;;30.52;19.45;;;;;;;;;;5051641;28;20048;-68
2022/03/26 16:28:52;;;;;;;33.17;18.20;;;;;;;;;;5051524;28;20039;-67
2022/03/26 16:31:56;;;;;;;45.55;29.13;;;;;;;;;;5051588;28;20444;-68
2022/03/26 16:35:03;;;;;;;52.38;30.95;;;;;;;;;;5051899;28;20052;-69
2022/03/26 16:38:07;;;;;;;57.17;33.22;;;;;;;;;;5051601;28;20048;-68
2022/03/26 16:41:11;;;;;;;44.90;23.77;;;;;;;;;;5051325;28;20044;-67
2022/03/26 16:44:17;;;;;;;29.70;18.65;;;;;;;;;;5051168;28;20052;-67
2022/03/26 16:47:21;;;;;;;27.17;16.52;;;;;;;;;;5050858;28;20056;-67
2022/03/26 16:50:26;;;;;;;38.83;20.27;;;;;;;;;;5051211;28;20064;-68
2022/03/26 16:53:31;;;;;;;40.08;22.50;;;;;;;;;;5050946;28;20508;-68
2022/03/26 16:56:36;;;;;;;52.65;24.45;;;;;;;;;;5051018;28;20394;-68
2022/03/26 16:59:40;;;;;;;41.55;21.42;;;;;;;;;;5050370;28;20438;-67
2022/03/26 17:02:44;;;;;;;32.28;19.48;;;;;;;;;;5049840;28;20501;-67
2022/03/26 17:05:49;;;;;;;26.08;17.75;;;;;;;;;;5050708;28;20044;-67
2022/03/26 17:08:53;;;;;;;32.58;17.42;;;;;;;;;;5050701;28;20039;-68
2022/03/26 17:11:58;;;;;;;31.40;17.33;;;;;;;;;;5050709;28;20051;-67
2022/03/26 17:15:04;;;;;;;24.58;17.60;;;;;;;;;;5050486;28;20044;-68
2022/03/26 17:18:08;;;;;;;25.92;17.15;;;;;;;;;;5050516;28;20088;-68
2022/03/26 17:21:12;;;;;;;33.97;19.70;;;;;;;;;;5050799;28;20407;-67
2022/03/26 17:24:18;;;;;;;31.20;19.63;;;;;;;;;;5050260;28;20056;-66
2022/03/26 17:27:22;;;;;;;34.38;17.80;;;;;;;;;;5050052;28;20052;-66
2022/03/26 17:30:26;;;;;;;26.73;18.20;;;;;;;;;;5049437;28;20051;-66
2022/03/26 17:33:30;;;;;;;28.92;17.95;;;;;;;;;;5049099;28;20044;-66
2022/03/26 17:36:34;;;;;;;29.63;18.02;;;;;;;;;;5050112;28;20048;-67
2022/03/26 17:39:39;;;;;;;31.65;19.08;;;;;;;;;;5050493;28;20060;-67
2022/03/26 17:42:45;;;;;;;31.27;19.70;;;;;;;;;;5050089;28;20409;-67
2022/03/26 17:45:49;;;;;;;36.88;20.75;;;;;;;;;;5050464;28;20040;-67
2022/03/26 17:48:54;;;;;;;47.42;28.50;;;;;;;;;;5049790;28;20131;-67
2022/03/26 17:51:58;;;;;;;65.00;36.05;;;;;;;;;;5050169;28;20596;-67
2022/03/26 17:55:03;;;;;;;42.47;26.02;;;;;;;;;;5050141;28;20049;-66
2022/03/26 17:58:07;;;;;;;33.67;23.02;;;;;;;;;;5049456;28;20044;-66
2022/03/26 18:01:12;;;;;;;33.15;22.88;;;;;;;;;;5050242;28;20495;-66
2022/03/26 18:04:17;;;;;;;42.25;23.88;;;;;;;;;;5049789;28;20051;-67
2022/03/26 18:07:22;;;;;;;48.08;25.52;;;;;;;;;;5050189;28;20044;-66
2022/03/26 18:10:26;;;;;;;43.03;28.58;;;;;;;;;;5049555;28;20044;-66